createdAt,value
2023-04-10T00:02:29.357Z,95976.06
2023-04-10T00:06:12.278Z,95978.66
2023-04-10T00:09:55.029Z,95973.44
2023-04-10T00:13:39.052Z,95979.50
2023-04-10T00:17:21.745Z,95987.47
2023-04-10T00:21:04.744Z,95974.13
2023-04-10T00:24:47.372Z,95963.03
2023-04-10T00:28:30.009Z,95960.41
2023-04-10T00:32:14.084Z,95956.16
2023-04-10T00:35:56.845Z,95952.28
2023-04-10T00:39:39.451Z,95939.38
2023-04-10T00:43:24.359Z,95948.03
2023-04-10T00:47:07.529Z,95936.63
2023-04-10T00:50:51.591Z,95933.34
2023-04-10T00:54:36.492Z,95937.59
2023-04-10T00:58:19.409Z,95932.84
2023-04-10T01:02:02.366Z,95926.31
2023-04-10T01:05:51.744Z,95931.03
2023-04-10T01:09:42.980Z,95926.44
2023-04-10T01:13:29.658Z,95925.13
2023-04-10T01:17:14.732Z,95941.06
2023-04-10T01:20:57.750Z,95938.06
2023-04-10T01:24:54.053Z,95937.88
2023-04-10T01:29:05.273Z,95932.78
2023-04-10T01:32:48.043Z,95929.81
2023-04-10T01:36:38.181Z,95925.53
2023-04-10T01:40:21.855Z,95922.88
2023-04-10T01:44:07.433Z,95910.47
2023-04-10T01:47:50.824Z,95915.97
2023-04-10T01:51:33.844Z,95913.03
2023-04-10T01:55:16.724Z,95903.84
2023-04-10T01:58:59.413Z,95907.41
2023-04-10T02:02:44.724Z,95907.72
2023-04-10T02:06:31.980Z,95904.47
2023-04-10T02:10:17.852Z,95899.69
2023-04-10T02:14:02.074Z,95911.41
2023-04-10T02:17:46.266Z,95905.66
2023-04-10T02:21:29.882Z,95897.81
2023-04-10T02:25:12.735Z,95903.47
2023-04-10T02:28:55.851Z,95903.09
2023-04-10T02:32:38.618Z,95903.25
2023-04-10T02:36:22.704Z,95905.34
2023-04-10T02:40:06.247Z,95903.47
2023-04-10T02:43:48.896Z,95911.84
2023-04-10T02:47:32.110Z,95912.44
2023-04-10T02:51:14.769Z,95906.34
2023-04-10T02:54:58.784Z,95905.53
2023-04-10T02:58:45.440Z,95907.78
2023-04-10T03:02:28.159Z,95899.97
2023-04-10T03:06:11.493Z,95904.50
2023-04-10T03:09:54.077Z,95901.22
2023-04-10T03:13:38.071Z,95903.16
2023-04-10T03:17:20.723Z,95897.44
2023-04-10T03:21:03.512Z,95902.13
2023-04-10T03:24:46.138Z,95902.41
2023-04-10T03:28:29.699Z,95892.28
2023-04-10T03:32:13.657Z,95903.28
2023-04-10T03:35:57.327Z,95906.19
2023-04-10T03:39:40.154Z,95908.13
2023-04-10T03:43:25.757Z,95899.53
2023-04-10T03:47:08.418Z,95900.09
2023-04-10T03:50:52.565Z,95903.97
2023-04-10T03:54:35.501Z,95909.16
2023-04-10T03:58:18.537Z,95908.63
2023-04-10T04:02:01.285Z,95909.75
2023-04-10T04:05:43.920Z,95914.13
2023-04-10T04:09:27.969Z,95916.28
2023-04-10T04:13:10.759Z,95907.81
2023-04-10T04:16:53.519Z,95911.13
2023-04-10T04:20:36.231Z,95900.88
2023-04-10T04:24:18.897Z,95907.34
2023-04-10T04:28:02.910Z,95905.97
2023-04-10T04:31:45.579Z,95909.81
2023-04-10T04:35:28.266Z,95912.03
2023-04-10T04:39:10.944Z,95911.22
2023-04-10T04:42:53.567Z,95924.63
2023-04-10T04:46:37.539Z,95935.31
2023-04-10T04:50:20.346Z,95925.34
2023-04-10T04:54:02.983Z,95927.53
2023-04-10T04:57:45.594Z,95922.47
2023-04-10T05:01:28.339Z,95923.69
2023-04-10T05:05:12.368Z,95921.09
2023-04-10T05:08:55.299Z,95926.97
2023-04-10T05:12:38.046Z,95931.47
2023-04-10T05:16:20.803Z,95923.53
2023-04-10T05:20:04.846Z,95927.91
2023-04-10T05:23:48.888Z,95920.78
2023-04-10T05:27:31.537Z,95920.22
2023-04-10T05:31:14.272Z,95914.44
2023-04-10T05:34:57.196Z,95922.09
2023-04-10T05:38:39.816Z,95924.41
2023-04-10T05:42:23.980Z,95936.16
2023-04-10T05:46:07.298Z,95928.91
2023-04-10T05:49:49.903Z,95935.84
2023-04-10T05:53:32.893Z,95930.19
2023-04-10T05:57:15.623Z,95937.31
2023-04-10T06:00:59.822Z,95957.53
2023-04-10T06:04:42.669Z,95959.09
2023-04-10T06:08:25.637Z,95958.75
2023-04-10T06:12:08.260Z,95958.84
2023-04-10T06:15:50.968Z,95953.41
2023-04-10T06:19:34.993Z,95958.81
2023-04-10T06:23:17.606Z,95954.66
2023-04-10T06:27:00.794Z,95952.13
2023-04-10T06:30:43.417Z,95945.69
2023-04-10T06:34:26.028Z,95942.56
2023-04-10T06:38:10.022Z,95946.03
2023-04-10T06:41:52.666Z,95947.75
2023-04-10T06:45:35.358Z,95932.19
2023-04-10T06:49:17.987Z,95929.97
2023-04-10T06:53:00.744Z,95926.94
2023-04-10T06:56:44.750Z,95927.06
2023-04-10T07:00:27.721Z,95928.25
2023-04-10T07:04:10.599Z,95921.34
2023-04-10T07:07:53.346Z,95915.31
2023-04-10T07:11:36.085Z,95926.31
2023-04-10T07:15:20.745Z,95920.66
2023-04-10T07:19:03.419Z,95914.00
2023-04-10T07:22:46.128Z,95922.00
2023-04-10T07:26:28.793Z,95917.94
2023-04-10T07:30:14.379Z,95923.16
2023-04-10T07:33:58.352Z,95914.50
2023-04-10T07:37:43.734Z,95914.31
2023-04-10T07:41:26.456Z,95916.59
2023-04-10T07:45:10.385Z,95918.53
2023-04-10T07:48:53.184Z,95918.50
2023-04-10T07:52:37.436Z,95929.72
2023-04-10T07:56:21.327Z,95914.78
2023-04-10T08:00:04.417Z,95918.34
2023-04-10T08:03:50.151Z,95916.16
2023-04-10T08:07:32.846Z,95909.75
2023-04-10T08:11:27.656Z,95917.22
2023-04-10T08:15:11.159Z,95900.44
2023-04-10T08:18:54.178Z,95910.72
2023-04-10T08:22:37.073Z,95900.56
2023-04-10T08:26:21.305Z,95909.34
2023-04-10T08:30:06.241Z,95901.41
2023-04-10T08:33:49.497Z,95902.06
2023-04-10T08:37:32.179Z,95896.63
2023-04-10T08:41:16.437Z,95907.47
2023-04-10T08:44:59.116Z,95904.22
2023-04-10T08:48:48.139Z,95908.56
2023-04-10T08:52:31.812Z,95909.94
2023-04-10T08:56:15.510Z,95905.88
2023-04-10T09:00:03.900Z,95910.84
2023-04-10T09:03:51.448Z,95900.56
2023-04-10T09:07:34.207Z,95907.13
2023-04-10T09:11:16.818Z,95888.06
2023-04-10T09:14:59.512Z,95901.53
2023-04-10T09:18:43.620Z,95901.63
2023-04-10T09:22:32.540Z,95900.91
2023-04-10T09:26:28.308Z,95886.19
2023-04-10T09:30:12.617Z,95884.19
2023-04-10T09:34:08.273Z,95887.81
2023-04-10T09:37:52.321Z,95861.91
2023-04-10T09:41:35.005Z,95855.22
2023-04-10T09:45:20.143Z,95847.16
2023-04-10T09:49:05.313Z,95856.53
2023-04-10T09:52:48.718Z,95844.00
2023-04-10T09:56:34.720Z,95848.41
2023-04-10T10:00:17.807Z,95838.13
2023-04-10T10:04:02.824Z,95834.00
2023-04-10T10:07:46.048Z,95830.84
2023-04-10T10:11:29.637Z,95817.56
2023-04-10T10:15:16.448Z,95834.19
2023-04-10T10:19:02.926Z,95813.16
2023-04-10T10:22:48.318Z,95820.09
2023-04-10T10:26:31.853Z,95808.00
2023-04-10T10:30:29.474Z,95807.44
2023-04-10T10:34:13.588Z,95806.28
2023-04-10T10:37:56.365Z,95795.34
2023-04-10T10:41:43.859Z,95791.91
2023-04-10T10:45:34.457Z,95786.28
2023-04-10T10:49:17.229Z,95779.03
2023-04-10T10:53:01.334Z,95782.72
2023-04-10T10:56:43.977Z,95777.84
2023-04-10T11:00:48.797Z,95766.91
2023-04-10T11:04:43.396Z,95758.81
2023-04-10T11:08:47.075Z,95746.31
2023-04-10T11:12:29.756Z,95740.25
2023-04-10T11:16:13.796Z,95724.88
2023-04-10T11:20:01.032Z,95730.56
2023-04-10T11:24:03.959Z,95728.53
2023-04-10T11:27:49.227Z,95715.97
2023-04-10T11:31:33.627Z,95726.50
2023-04-10T11:35:19.945Z,95722.28
2023-04-10T11:39:05.781Z,95712.72
2023-04-10T11:42:48.849Z,95710.28
2023-04-10T11:46:33.062Z,95705.59
2023-04-10T11:50:18.038Z,95698.28
2023-04-10T11:54:11.679Z,95689.91
2023-04-10T11:57:54.342Z,95680.53
2023-04-10T12:01:41.112Z,95684.16
2023-04-10T12:05:25.519Z,95681.88
2023-04-10T12:09:14.311Z,95679.66
2023-04-10T12:12:56.946Z,95673.09
2023-04-10T12:16:41.999Z,95682.00
2023-04-10T12:20:27.761Z,95676.25
2023-04-10T12:24:10.505Z,95678.44
2023-04-10T12:27:53.192Z,95672.03
2023-04-10T12:31:37.088Z,95669.63
2023-04-10T12:35:21.596Z,95666.81
2023-04-10T12:39:05.680Z,95671.88
2023-04-10T12:42:48.341Z,95663.84
2023-04-10T12:46:31.452Z,95665.47
2023-04-10T12:50:15.461Z,95656.78
2023-04-10T12:53:59.513Z,95646.47
2023-04-10T12:57:42.694Z,95647.34
2023-04-10T13:01:25.369Z,95644.63
2023-04-10T13:05:09.066Z,95646.78
2023-04-10T13:08:52.948Z,95637.75
2023-04-10T13:12:38.863Z,95640.88
2023-04-10T13:16:21.574Z,95624.03
2023-04-10T13:20:04.674Z,95630.03
2023-04-10T13:23:47.465Z,95613.78
2023-04-10T13:27:30.188Z,95608.78
2023-04-10T13:31:15.911Z,95597.94
2023-04-10T13:34:58.896Z,95593.13
2023-04-10T13:38:41.616Z,95585.91
2023-04-10T13:42:24.295Z,95587.63
2023-04-10T13:46:07.322Z,95567.41
2023-04-10T13:49:51.360Z,95564.97
2023-04-10T13:53:34.060Z,95559.28
2023-04-10T13:57:16.762Z,95562.41
2023-04-10T14:00:59.502Z,95562.28
2023-04-10T14:04:42.773Z,95560.88
2023-04-10T14:08:27.084Z,95559.38
2023-04-10T14:12:10.718Z,95558.16
2023-04-10T14:15:53.747Z,95547.28
2023-04-10T14:19:36.587Z,95536.94
2023-04-10T14:23:19.250Z,95516.38
2023-04-10T14:27:03.297Z,95527.78
2023-04-10T14:30:46.174Z,95523.72
2023-04-10T14:34:28.849Z,95513.31
2023-04-10T14:38:11.582Z,95516.97
2023-04-10T14:41:54.270Z,95511.50
2023-04-10T14:45:38.325Z,95514.03
2023-04-10T14:49:21.051Z,95507.16
2023-04-10T14:53:03.802Z,95509.09
2023-04-10T14:56:46.543Z,95506.47
2023-04-10T15:00:29.765Z,95504.41
2023-04-10T15:04:13.905Z,95502.25
2023-04-10T15:07:56.726Z,95493.94
2023-04-10T15:11:39.420Z,95479.63
2023-04-10T15:15:22.124Z,95482.47
2023-04-10T15:19:04.833Z,95466.34
2023-04-10T15:22:48.991Z,95459.16
2023-04-10T15:26:35.040Z,95458.59
2023-04-10T15:30:17.702Z,95456.69
2023-04-10T15:34:00.373Z,95444.81
2023-04-10T15:37:43.111Z,95451.94
2023-04-10T15:41:28.112Z,95460.41
2023-04-10T15:45:10.838Z,95457.53
2023-04-10T15:48:53.584Z,95453.66
2023-04-10T15:52:36.208Z,95446.63
2023-04-10T15:56:18.820Z,95445.88
2023-04-10T16:00:04.329Z,95442.06
2023-04-10T16:03:48.948Z,95449.16
2023-04-10T16:07:31.977Z,95435.72
2023-04-10T16:11:14.619Z,95439.00
2023-04-10T16:14:57.909Z,95423.28
2023-04-10T16:18:41.874Z,95419.19
2023-04-10T16:22:24.918Z,95427.31
2023-04-10T16:26:07.873Z,95428.38
2023-04-10T16:29:50.626Z,95420.81
2023-04-10T16:33:33.259Z,95425.78
2023-04-10T16:37:17.280Z,95418.97
2023-04-10T16:41:02.940Z,95420.41
2023-04-10T16:44:45.556Z,95424.69
2023-04-10T16:48:28.336Z,95425.56
2023-04-10T16:52:11.046Z,95425.78
2023-04-10T16:56:00.525Z,95410.09
2023-04-10T16:59:45.744Z,95405.34
2023-04-10T17:03:28.485Z,95403.88
2023-04-10T17:07:11.164Z,95396.88
2023-04-10T17:10:53.790Z,95401.06
2023-04-10T17:14:37.822Z,95401.59
2023-04-10T17:18:21.638Z,95388.34
2023-04-10T17:22:04.518Z,95392.47
2023-04-10T17:25:47.158Z,95381.78
2023-04-10T17:29:29.797Z,95381.63
2023-04-10T17:33:13.778Z,95373.91
2023-04-10T17:36:56.450Z,95377.03
2023-04-10T17:40:40.879Z,95373.25
2023-04-10T17:44:23.800Z,95380.72
2023-04-10T17:48:06.931Z,95373.41
2023-04-10T17:51:51.087Z,95373.84
2023-04-10T17:55:38.919Z,95373.66
2023-04-10T17:59:21.506Z,95376.84
2023-04-10T18:03:04.298Z,95383.50
2023-04-10T18:06:47.018Z,95374.84
2023-04-10T18:10:31.039Z,95375.84
2023-04-10T18:14:13.664Z,95376.56
2023-04-10T18:17:56.385Z,95368.38
2023-04-10T18:21:41.848Z,95380.31
2023-04-10T18:25:24.488Z,95371.88
2023-04-10T18:29:08.610Z,95362.28
2023-04-10T18:32:52.082Z,95360.38
2023-04-10T18:36:34.821Z,95358.03
2023-04-10T18:40:19.583Z,95353.63
2023-04-10T18:44:05.430Z,95358.06
2023-04-10T18:47:49.928Z,95357.53
2023-04-10T18:51:34.971Z,95362.91
2023-04-10T18:55:18.168Z,95365.03
2023-04-10T18:59:00.797Z,95358.63
2023-04-10T19:02:43.534Z,95364.34
2023-04-10T19:06:27.881Z,95357.09
2023-04-10T19:10:11.353Z,95368.97
2023-04-10T19:13:54.173Z,95370.34
2023-04-10T19:17:37.235Z,95360.28
2023-04-10T19:21:19.897Z,95346.13
2023-04-10T19:25:04.278Z,95340.16
2023-04-10T19:28:47.178Z,95324.97
2023-04-10T19:32:29.832Z,95314.69
2023-04-10T19:36:12.573Z,95310.34
2023-04-10T19:40:00.568Z,95302.88
2023-04-10T19:43:45.073Z,95296.25
2023-04-10T19:47:27.822Z,95310.88
2023-04-10T19:51:10.478Z,95298.72
2023-04-10T19:54:53.173Z,95304.88
2023-04-10T19:58:40.948Z,95298.41
2023-04-10T20:02:25.721Z,95302.53
2023-04-10T20:06:09.015Z,95304.19
2023-04-10T20:09:51.636Z,95312.91
2023-04-10T20:13:34.757Z,95301.63
2023-04-10T20:17:17.590Z,95294.13
2023-04-10T20:21:01.654Z,95288.91
2023-04-10T20:24:44.428Z,95287.50
2023-04-10T20:28:27.088Z,95283.09
2023-04-10T20:32:09.798Z,95284.50
2023-04-10T20:35:53.494Z,95278.88
2023-04-10T20:39:37.762Z,95290.19
2023-04-10T20:43:21.019Z,95296.28
2023-04-10T20:47:03.720Z,95295.91
2023-04-10T20:50:49.044Z,95288.84
2023-04-10T20:54:31.803Z,95282.97
2023-04-10T20:58:15.773Z,95291.47
2023-04-10T21:01:59.283Z,95290.66
2023-04-10T21:05:45.351Z,95289.84
2023-04-10T21:09:28.025Z,95295.94
2023-04-10T21:13:10.836Z,95287.03
2023-04-10T21:16:55.016Z,95283.38
2023-04-10T21:20:38.001Z,95286.81
2023-04-10T21:24:20.655Z,95281.16
2023-04-10T21:28:03.436Z,95278.13
2023-04-10T21:31:46.077Z,95280.94
2023-04-10T21:35:30.396Z,95278.94
2023-04-10T21:39:13.090Z,95285.03
2023-04-10T21:42:56.708Z,95285.81
2023-04-10T21:46:39.420Z,95284.63
2023-04-10T21:50:22.070Z,95278.13
2023-04-10T21:54:06.248Z,95278.13
2023-04-10T21:57:48.898Z,95274.47
2023-04-10T22:01:31.907Z,95261.94
2023-04-10T22:05:16.676Z,95259.94
2023-04-10T22:08:59.336Z,95259.13
2023-04-10T22:12:43.745Z,95243.34
2023-04-10T22:16:27.462Z,95245.78
2023-04-10T22:20:13.627Z,95236.06
2023-04-10T22:23:56.312Z,95221.31
2023-04-10T22:27:39.027Z,95221.91
2023-04-10T22:31:23.233Z,95228.00
2023-04-10T22:35:07.247Z,95231.25
2023-04-10T22:38:49.876Z,95225.56
2023-04-10T22:42:32.529Z,95235.66
2023-04-10T22:46:15.282Z,95239.31
2023-04-10T22:49:59.337Z,95232.03
2023-04-10T22:53:42.097Z,95227.78
2023-04-10T22:57:27.509Z,95222.53
2023-04-10T23:01:11.705Z,95222.94
2023-04-10T23:04:54.560Z,95215.06
2023-04-10T23:08:38.876Z,95222.75
2023-04-10T23:12:22.841Z,95212.22
2023-04-10T23:16:06.037Z,95192.44
2023-04-10T23:19:48.701Z,95187.56
2023-04-10T23:23:31.326Z,95180.91
2023-04-10T23:27:15.359Z,95185.56
2023-04-10T23:30:58.017Z,95181.09
2023-04-10T23:34:40.824Z,95168.97
2023-04-10T23:38:23.701Z,95171.81
2023-04-10T23:42:06.571Z,95171.22
2023-04-10T23:45:50.555Z,95172.22
2023-04-10T23:49:34.854Z,95170.19
2023-04-10T23:53:17.650Z,95170.19
2023-04-10T23:57:00.304Z,95161.91
